sensor_id;sensor_type;location;lat;lon;timestamp;temperature;humidity
26947;DHT22;14501;52.282;10.560;2023-04-24T00:02:14;12.60;99.90
26947;DHT22;14501;52.282;10.560;2023-04-24T00:04:41;12.60;99.90
26947;DHT22;14501;52.282;10.560;2023-04-24T00:07:07;12.60;99.90
26947;DHT22;14501;52.282;10.560;2023-04-24T00:09:33;12.50;99.90
26947;DHT22;14501;52.282;10.560;2023-04-24T00:11:59;12.50;99.90
26947;DHT22;14501;52.282;10.560;2023-04-24T00:14:25;12.50;99.90
26947;DHT22;14501;52.282;10.560;2023-04-24T00:16:50;12.40;99.90
26947;DHT22;14501;52.282;10.560;2023-04-24T00:19:16;12.40;99.90
26947;DHT22;14501;52.282;10.560;2023-04-24T00:21:42;12.40;99.90
26947;DHT22;14501;52.282;10.560;2023-04-24T00:24:08;12.40;99.90
26947;DHT22;14501;52.282;10.560;2023-04-24T00:26:36;12.40;99.90
26947;DHT22;14501;52.282;10.560;2023-04-24T00:29:02;12.40;99.90
26947;DHT22;14501;52.282;10.560;2023-04-24T00:31:27;12.40;99.90
26947;DHT22;14501;52.282;10.560;2023-04-24T00:33:54;12.40;99.90
26947;DHT22;14501;52.282;10.560;2023-04-24T00:36:20;12.30;99.90
26947;DHT22;14501;52.282;10.560;2023-04-24T00:38:46;12.20;99.90
26947;DHT22;14501;52.282;10.560;2023-04-24T00:41:11;12.20;99.90
26947;DHT22;14501;52.282;10.560;2023-04-24T00:43:37;12.10;99.90
26947;DHT22;14501;52.282;10.560;2023-04-24T00:46:03;12.00;99.90
26947;DHT22;14501;52.282;10.560;2023-04-24T00:48:29;12.00;99.90
26947;DHT22;14501;52.282;10.560;2023-04-24T00:50:56;12.00;99.90
26947;DHT22;14501;52.282;10.560;2023-04-24T00:53:22;11.90;99.90
26947;DHT22;14501;52.282;10.560;2023-04-24T00:55:48;11.80;99.90
26947;DHT22;14501;52.282;10.560;2023-04-24T00:58:14;11.80;99.90
26947;DHT22;14501;52.282;10.560;2023-04-24T01:00:40;11.80;99.90
26947;DHT22;14501;52.282;10.560;2023-04-24T01:03:06;11.80;99.90
26947;DHT22;14501;52.282;10.560;2023-04-24T01:05:32;11.80;99.90
26947;DHT22;14501;52.282;10.560;2023-04-24T01:07:59;11.80;99.90
26947;DHT22;14501;52.282;10.560;2023-04-24T01:10:26;11.70;99.90
26947;DHT22;14501;52.282;10.560;2023-04-24T01:12:53;11.80;99.90
26947;DHT22;14501;52.282;10.560;2023-04-24T01:15:18;11.80;99.90
26947;DHT22;14501;52.282;10.560;2023-04-24T01:17:44;11.80;99.90
26947;DHT22;14501;52.282;10.560;2023-04-24T01:20:10;11.70;99.90
26947;DHT22;14501;52.282;10.560;2023-04-24T01:22:36;11.70;99.90
26947;DHT22;14501;52.282;10.560;2023-04-24T01:25:02;11.60;99.90
26947;DHT22;14501;52.282;10.560;2023-04-24T01:27:28;11.60;99.90
26947;DHT22;14501;52.282;10.560;2023-04-24T01:29:54;11.60;99.90
26947;DHT22;14501;52.282;10.560;2023-04-24T01:32:20;11.60;99.90
26947;DHT22;14501;52.282;10.560;2023-04-24T01:34:46;11.70;99.90
26947;DHT22;14501;52.282;10.560;2023-04-24T01:37:12;11.40;99.90
26947;DHT22;14501;52.282;10.560;2023-04-24T01:39:38;11.60;99.90
26947;DHT22;14501;52.282;10.560;2023-04-24T01:42:04;11.60;99.90
26947;DHT22;14501;52.282;10.560;2023-04-24T01:44:31;11.40;99.90
26947;DHT22;14501;52.282;10.560;2023-04-24T01:46:56;11.50;99.90
26947;DHT22;14501;52.282;10.560;2023-04-24T01:49:22;11.60;99.90
26947;DHT22;14501;52.282;10.560;2023-04-24T01:51:48;11.50;99.90
26947;DHT22;14501;52.282;10.560;2023-04-24T01:54:13;11.50;99.90
26947;DHT22;14501;52.282;10.560;2023-04-24T01:56:41;11.50;99.90
26947;DHT22;14501;52.282;10.560;2023-04-24T01:59:10;11.50;99.90
26947;DHT22;14501;52.282;10.560;2023-04-24T02:01:36;11.40;99.90
26947;DHT22;14501;52.282;10.560;2023-04-24T02:04:03;11.50;99.90
26947;DHT22;14501;52.282;10.560;2023-04-24T02:06:29;11.30;99.90
26947;DHT22;14501;52.282;10.560;2023-04-24T02:08:57;11.30;99.90
26947;DHT22;14501;52.282;10.560;2023-04-24T02:11:23;11.30;99.90
26947;DHT22;14501;52.282;10.560;2023-04-24T02:13:48;11.20;99.90
26947;DHT22;14501;52.282;10.560;2023-04-24T02:16:14;11.20;99.90
26947;DHT22;14501;52.282;10.560;2023-04-24T02:18:39;11.10;99.90
26947;DHT22;14501;52.282;10.560;2023-04-24T02:21:05;11.70;99.90
26947;DHT22;14501;52.282;10.560;2023-04-24T02:23:31;10.90;99.90
26947;DHT22;14501;52.282;10.560;2023-04-24T02:25:56;11.00;99.90
26947;DHT22;14501;52.282;10.560;2023-04-24T02:28:22;11.30;99.90
26947;DHT22;14501;52.282;10.560;2023-04-24T02:30:47;11.00;99.90
26947;DHT22;14501;52.282;10.560;2023-04-24T02:33:13;11.00;99.90
26947;DHT22;14501;52.282;10.560;2023-04-24T02:35:38;10.70;99.90
26947;DHT22;14501;52.282;10.560;2023-04-24T02:38:04;10.70;99.90
26947;DHT22;14501;52.282;10.560;2023-04-24T02:40:30;10.90;99.90
26947;DHT22;14501;52.282;10.560;2023-04-24T02:42:55;10.80;99.90
26947;DHT22;14501;52.282;10.560;2023-04-24T02:45:21;10.70;99.90
26947;DHT22;14501;52.282;10.560;2023-04-24T02:47:46;10.40;99.90
26947;DHT22;14501;52.282;10.560;2023-04-24T02:50:12;10.70;99.90
26947;DHT22;14501;52.282;10.560;2023-04-24T02:52:37;10.60;99.90
26947;DHT22;14501;52.282;10.560;2023-04-24T02:55:03;10.50;99.90
26947;DHT22;14501;52.282;10.560;2023-04-24T02:57:29;10.50;99.90
26947;DHT22;14501;52.282;10.560;2023-04-24T02:59:55;10.50;99.90
26947;DHT22;14501;52.282;10.560;2023-04-24T03:02:20;10.50;99.90
26947;DHT22;14501;52.282;10.560;2023-04-24T03:04:46;10.50;99.90
26947;DHT22;14501;52.282;10.560;2023-04-24T03:07:13;10.40;99.90
26947;DHT22;14501;52.282;10.560;2023-04-24T03:09:40;10.40;99.90
26947;DHT22;14501;52.282;10.560;2023-04-24T03:12:05;10.30;99.90
26947;DHT22;14501;52.282;10.560;2023-04-24T03:14:31;10.20;99.90
26947;DHT22;14501;52.282;10.560;2023-04-24T03:16:57;10.20;99.90
26947;DHT22;14501;52.282;10.560;2023-04-24T03:19:22;10.00;99.90
26947;DHT22;14501;52.282;10.560;2023-04-24T03:21:48;10.20;99.90
26947;DHT22;14501;52.282;10.560;2023-04-24T03:24:14;10.20;99.90
26947;DHT22;14501;52.282;10.560;2023-04-24T03:26:39;10.10;99.90
26947;DHT22;14501;52.282;10.560;2023-04-24T03:29:05;10.10;99.90
26947;DHT22;14501;52.282;10.560;2023-04-24T03:31:30;10.10;99.90
26947;DHT22;14501;52.282;10.560;2023-04-24T03:33:56;10.10;99.90
26947;DHT22;14501;52.282;10.560;2023-04-24T03:36:22;10.00;99.90
26947;DHT22;14501;52.282;10.560;2023-04-24T03:38:47;10.10;99.90
26947;DHT22;14501;52.282;10.560;2023-04-24T03:41:13;10.20;99.90
26947;DHT22;14501;52.282;10.560;2023-04-24T03:43:39;10.00;99.90
26947;DHT22;14501;52.282;10.560;2023-04-24T03:46:05;9.90;99.90
26947;DHT22;14501;52.282;10.560;2023-04-24T03:48:30;9.80;99.90
26947;DHT22;14501;52.282;10.560;2023-04-24T03:50:56;9.90;99.90
26947;DHT22;14501;52.282;10.560;2023-04-24T03:53:21;10.20;99.90
26947;DHT22;14501;52.282;10.560;2023-04-24T03:55:47;9.80;99.90
26947;DHT22;14501;52.282;10.560;2023-04-24T03:58:13;9.80;99.90
26947;DHT22;14501;52.282;10.560;2023-04-24T04:00:41;9.70;99.90
26947;DHT22;14501;52.282;10.560;2023-04-24T04:03:07;9.60;99.90
26947;DHT22;14501;52.282;10.560;2023-04-24T04:05:32;9.50;99.90
26947;DHT22;14501;52.282;10.560;2023-04-24T04:07:58;9.50;99.90
26947;DHT22;14501;52.282;10.560;2023-04-24T04:10:23;9.30;99.90
26947;DHT22;14501;52.282;10.560;2023-04-24T04:12:49;9.40;99.90
26947;DHT22;14501;52.282;10.560;2023-04-24T04:15:15;9.30;99.90
26947;DHT22;14501;52.282;10.560;2023-04-24T04:17:40;9.30;99.90
26947;DHT22;14501;52.282;10.560;2023-04-24T04:20:07;9.00;99.90
26947;DHT22;14501;52.282;10.560;2023-04-24T04:22:35;9.30;99.90
26947;DHT22;14501;52.282;10.560;2023-04-24T04:25:01;9.40;99.90
26947;DHT22;14501;52.282;10.560;2023-04-24T04:27:26;9.90;99.90
26947;DHT22;14501;52.282;10.560;2023-04-24T04:29:53;9.60;99.90
26947;DHT22;14501;52.282;10.560;2023-04-24T04:32:21;9.60;99.90
26947;DHT22;14501;52.282;10.560;2023-04-24T04:34:47;9.50;99.90
26947;DHT22;14501;52.282;10.560;2023-04-24T04:37:14;9.50;99.90
26947;DHT22;14501;52.282;10.560;2023-04-24T04:39:40;9.60;99.90
26947;DHT22;14501;52.282;10.560;2023-04-24T04:42:06;9.70;99.90
26947;DHT22;14501;52.282;10.560;2023-04-24T04:44:32;9.90;99.90
26947;DHT22;14501;52.282;10.560;2023-04-24T04:46:58;9.80;99.90
26947;DHT22;14501;52.282;10.560;2023-04-24T04:49:24;9.90;99.90
26947;DHT22;14501;52.282;10.560;2023-04-24T04:51:50;10.10;99.90
26947;DHT22;14501;52.282;10.560;2023-04-24T04:54:16;10.00;99.90
26947;DHT22;14501;52.282;10.560;2023-04-24T04:56:42;10.10;99.90
26947;DHT22;14501;52.282;10.560;2023-04-24T04:59:07;10.20;99.90
26947;DHT22;14501;52.282;10.560;2023-04-24T05:01:33;11.10;99.90
26947;DHT22;14501;52.282;10.560;2023-04-24T05:03:58;11.10;99.90
26947;DHT22;14501;52.282;10.560;2023-04-24T05:06:24;10.50;99.90
26947;DHT22;14501;52.282;10.560;2023-04-24T05:08:50;10.60;99.90
26947;DHT22;14501;52.282;10.560;2023-04-24T05:11:16;10.80;99.90
26947;DHT22;14501;52.282;10.560;2023-04-24T05:13:43;10.90;99.90
26947;DHT22;14501;52.282;10.560;2023-04-24T05:16:09;11.10;99.90
26947;DHT22;14501;52.282;10.560;2023-04-24T05:18:35;11.20;99.90
26947;DHT22;14501;52.282;10.560;2023-04-24T05:21:00;11.20;99.90
26947;DHT22;14501;52.282;10.560;2023-04-24T05:23:26;11.30;99.90
26947;DHT22;14501;52.282;10.560;2023-04-24T05:25:52;11.50;99.90
26947;DHT22;14501;52.282;10.560;2023-04-24T05:28:17;11.60;99.90
26947;DHT22;14501;52.282;10.560;2023-04-24T05:30:43;11.60;99.90
26947;DHT22;14501;52.282;10.560;2023-04-24T05:38:01;12.00;99.90
26947;DHT22;14501;52.282;10.560;2023-04-24T05:40:26;12.00;99.90
26947;DHT22;14501;52.282;10.560;2023-04-24T05:42:52;12.10;99.90
26947;DHT22;14501;52.282;10.560;2023-04-24T05:45:17;12.10;99.90
26947;DHT22;14501;52.282;10.560;2023-04-24T05:47:43;12.10;99.90
26947;DHT22;14501;52.282;10.560;2023-04-24T05:50:10;12.20;99.90
26947;DHT22;14501;52.282;10.560;2023-04-24T05:55:02;12.30;99.90
26947;DHT22;14501;52.282;10.560;2023-04-24T05:57:27;12.30;99.90
26947;DHT22;14501;52.282;10.560;2023-04-24T05:59:53;12.20;99.90
26947;DHT22;14501;52.282;10.560;2023-04-24T06:02:19;12.30;99.90
26947;DHT22;14501;52.282;10.560;2023-04-24T06:04:45;12.40;99.90
26947;DHT22;14501;52.282;10.560;2023-04-24T06:07:13;13.20;99.90
26947;DHT22;14501;52.282;10.560;2023-04-24T06:09:39;13.20;99.90
26947;DHT22;14501;52.282;10.560;2023-04-24T06:12:04;13.70;99.90
26947;DHT22;14501;52.282;10.560;2023-04-24T06:16:58;13.60;99.90
26947;DHT22;14501;52.282;10.560;2023-04-24T06:21:50;13.60;99.90
26947;DHT22;14501;52.282;10.560;2023-04-24T06:31:34;13.20;99.90
26947;DHT22;14501;52.282;10.560;2023-04-24T06:34:02;13.10;99.90
26947;DHT22;14501;52.282;10.560;2023-04-24T06:36:28;13.20;99.90
26947;DHT22;14501;52.282;10.560;2023-04-24T06:38:54;12.90;99.90
26947;DHT22;14501;52.282;10.560;2023-04-24T06:41:19;12.90;99.90
26947;DHT22;14501;52.282;10.560;2023-04-24T06:43:45;12.90;99.90
26947;DHT22;14501;52.282;10.560;2023-04-24T06:51:03;13.10;99.90
26947;DHT22;14501;52.282;10.560;2023-04-24T06:53:29;13.50;99.90
26947;DHT22;14501;52.282;10.560;2023-04-24T06:55:54;13.90;99.90
26947;DHT22;14501;52.282;10.560;2023-04-24T06:58:20;14.50;99.90
26947;DHT22;14501;52.282;10.560;2023-04-24T07:00:46;14.70;99.90
26947;DHT22;14501;52.282;10.560;2023-04-24T07:08:04;16.30;99.90
26947;DHT22;14501;52.282;10.560;2023-04-24T07:10:29;16.50;99.90
26947;DHT22;14501;52.282;10.560;2023-04-24T07:12:56;18.50;99.90
26947;DHT22;14501;52.282;10.560;2023-04-24T07:15:22;20.00;99.90
26947;DHT22;14501;52.282;10.560;2023-04-24T07:17:48;24.10;99.90
26947;DHT22;14501;52.282;10.560;2023-04-24T07:20:14;26.20;99.90
26947;DHT22;14501;52.282;10.560;2023-04-24T07:22:40;27.40;99.90
26947;DHT22;14501;52.282;10.560;2023-04-24T07:27:33;27.40;94.20
26947;DHT22;14501;52.282;10.560;2023-04-24T07:32:26;25.60;94.90
26947;DHT22;14501;52.282;10.560;2023-04-24T07:34:51;23.20;97.10
26947;DHT22;14501;52.282;10.560;2023-04-24T07:42:09;17.90;99.90
26947;DHT22;14501;52.282;10.560;2023-04-24T07:44:34;16.40;99.90
26947;DHT22;14501;52.282;10.560;2023-04-24T07:54:19;12.80;99.90
26947;DHT22;14501;52.282;10.560;2023-04-24T07:56:45;12.40;99.90
26947;DHT22;14501;52.282;10.560;2023-04-24T07:59:11;11.80;99.90
26947;DHT22;14501;52.282;10.560;2023-04-24T08:04:03;11.60;99.90
26947;DHT22;14501;52.282;10.560;2023-04-24T08:06:29;11.60;99.90
26947;DHT22;14501;52.282;10.560;2023-04-24T08:09:01;11.70;99.90
26947;DHT22;14501;52.282;10.560;2023-04-24T08:11:27;11.60;99.90
26947;DHT22;14501;52.282;10.560;2023-04-24T08:13:52;11.70;99.90
26947;DHT22;14501;52.282;10.560;2023-04-24T08:16:19;12.10;99.90
26947;DHT22;14501;52.282;10.560;2023-04-24T08:18:45;12.10;99.90
26947;DHT22;14501;52.282;10.560;2023-04-24T08:21:10;12.30;99.90
26947;DHT22;14501;52.282;10.560;2023-04-24T08:23:38;12.80;99.90
26947;DHT22;14501;52.282;10.560;2023-04-24T08:26:03;13.40;99.90
26947;DHT22;14501;52.282;10.560;2023-04-24T08:28:30;14.30;99.90
26947;DHT22;14501;52.282;10.560;2023-04-24T08:30:55;14.60;99.90
26947;DHT22;14501;52.282;10.560;2023-04-24T08:33:24;15.10;99.90
26947;DHT22;14501;52.282;10.560;2023-04-24T08:35:50;15.80;99.90
26947;DHT22;14501;52.282;10.560;2023-04-24T08:38:16;17.00;99.90
26947;DHT22;14501;52.282;10.560;2023-04-24T08:45:34;19.80;99.90
26947;DHT22;14501;52.282;10.560;2023-04-24T08:48:01;24.30;99.90
26947;DHT22;14501;52.282;10.560;2023-04-24T08:50:28;27.00;99.40
26947;DHT22;14501;52.282;10.560;2023-04-24T08:52:54;26.80;99.60
26947;DHT22;14501;52.282;10.560;2023-04-24T08:55:20;29.70;93.00
26947;DHT22;14501;52.282;10.560;2023-04-24T08:57:51;30.00;89.10
26947;DHT22;14501;52.282;10.560;2023-04-24T09:00:22;30.20;90.00
26947;DHT22;14501;52.282;10.560;2023-04-24T09:02:49;28.80;90.10
26947;DHT22;14501;52.282;10.560;2023-04-24T09:05:16;24.00;92.00
26947;DHT22;14501;52.282;10.560;2023-04-24T09:07:45;22.90;93.20
26947;DHT22;14501;52.282;10.560;2023-04-24T09:12:37;21.80;94.00
26947;DHT22;14501;52.282;10.560;2023-04-24T09:15:03;21.20;94.70
26947;DHT22;14501;52.282;10.560;2023-04-24T09:17:30;21.30;96.90
26947;DHT22;14501;52.282;10.560;2023-04-24T09:19:56;21.90;96.20
26947;DHT22;14501;52.282;10.560;2023-04-24T09:22:22;23.80;92.70
26947;DHT22;14501;52.282;10.560;2023-04-24T09:24:47;23.80;91.90
26947;DHT22;14501;52.282;10.560;2023-04-24T09:27:13;22.60;92.90
26947;DHT22;14501;52.282;10.560;2023-04-24T09:29:53;23.20;93.80
26947;DHT22;14501;52.282;10.560;2023-04-24T09:32:21;23.20;94.20
26947;DHT22;14501;52.282;10.560;2023-04-24T09:34:47;24.80;93.80
26947;DHT22;14501;52.282;10.560;2023-04-24T09:37:29;27.00;90.10
26947;DHT22;14501;52.282;10.560;2023-04-24T09:40:16;27.10;88.20
26947;DHT22;14501;52.282;10.560;2023-04-24T09:42:51;24.10;88.20
26947;DHT22;14501;52.282;10.560;2023-04-24T09:45:17;24.00;88.80
26947;DHT22;14501;52.282;10.560;2023-04-24T09:47:42;23.00;92.60
26947;DHT22;14501;52.282;10.560;2023-04-24T09:50:12;21.90;92.90
26947;DHT22;14501;52.282;10.560;2023-04-24T09:52:47;21.80;94.60
26947;DHT22;14501;52.282;10.560;2023-04-24T09:55:17;20.80;94.80
26947;DHT22;14501;52.282;10.560;2023-04-24T09:57:59;20.50;94.50
26947;DHT22;14501;52.282;10.560;2023-04-24T10:00:32;20.40;94.80
26947;DHT22;14501;52.282;10.560;2023-04-24T10:03:04;20.30;97.20
26947;DHT22;14501;52.282;10.560;2023-04-24T10:05:34;20.40;95.30
26947;DHT22;14501;52.282;10.560;2023-04-24T10:08:03;20.20;94.20
26947;DHT22;14501;52.282;10.560;2023-04-24T10:10:31;19.60;95.30
26947;DHT22;14501;52.282;10.560;2023-04-24T10:12:56;19.50;95.60
26947;DHT22;14501;52.282;10.560;2023-04-24T10:15:22;19.10;95.20
26947;DHT22;14501;52.282;10.560;2023-04-24T10:17:49;17.40;96.50
26947;DHT22;14501;52.282;10.560;2023-04-24T10:20:19;18.30;97.70
26947;DHT22;14501;52.282;10.560;2023-04-24T10:22:48;18.80;95.80
26947;DHT22;14501;52.282;10.560;2023-04-24T10:25:20;18.30;96.50
26947;DHT22;14501;52.282;10.560;2023-04-24T10:27:47;18.10;95.80
26947;DHT22;14501;52.282;10.560;2023-04-24T10:30:13;17.80;96.70
26947;DHT22;14501;52.282;10.560;2023-04-24T10:32:40;17.20;97.10
26947;DHT22;14501;52.282;10.560;2023-04-24T10:35:09;16.50;97.10
26947;DHT22;14501;52.282;10.560;2023-04-24T10:37:38;15.80;98.80
26947;DHT22;14501;52.282;10.560;2023-04-24T10:40:05;15.80;98.90
26947;DHT22;14501;52.282;10.560;2023-04-24T10:42:31;15.80;99.90
26947;DHT22;14501;52.282;10.560;2023-04-24T10:44:56;15.90;99.90
26947;DHT22;14501;52.282;10.560;2023-04-24T10:47:23;16.20;99.90
26947;DHT22;14501;52.282;10.560;2023-04-24T10:49:51;16.10;99.90
26947;DHT22;14501;52.282;10.560;2023-04-24T10:52:17;15.90;99.90
26947;DHT22;14501;52.282;10.560;2023-04-24T10:54:47;15.50;99.70
26947;DHT22;14501;52.282;10.560;2023-04-24T10:59:46;15.40;99.90
26947;DHT22;14501;52.282;10.560;2023-04-24T11:02:14;15.50;99.90
26947;DHT22;14501;52.282;10.560;2023-04-24T11:04:40;15.50;99.90
26947;DHT22;14501;52.282;10.560;2023-04-24T11:07:09;15.20;99.90
26947;DHT22;14501;52.282;10.560;2023-04-24T11:09:36;14.90;99.90
26947;DHT22;14501;52.282;10.560;2023-04-24T11:12:06;15.00;99.90
26947;DHT22;14501;52.282;10.560;2023-04-24T11:17:33;16.60;99.50
26947;DHT22;14501;52.282;10.560;2023-04-24T11:20:03;16.80;99.20
26947;DHT22;14501;52.282;10.560;2023-04-24T11:22:33;17.00;98.90
26947;DHT22;14501;52.282;10.560;2023-04-24T11:25:00;17.30;98.10
26947;DHT22;14501;52.282;10.560;2023-04-24T11:27:31;17.40;97.60
26947;DHT22;14501;52.282;10.560;2023-04-24T11:30:01;17.20;97.20
26947;DHT22;14501;52.282;10.560;2023-04-24T11:35:21;16.70;97.40
26947;DHT22;14501;52.282;10.560;2023-04-24T11:37:54;17.00;99.00
26947;DHT22;14501;52.282;10.560;2023-04-24T11:40:21;17.10;98.00
26947;DHT22;14501;52.282;10.560;2023-04-24T11:42:51;17.10;97.90
26947;DHT22;14501;52.282;10.560;2023-04-24T11:47:44;16.70;98.00
26947;DHT22;14501;52.282;10.560;2023-04-24T11:50:18;16.20;98.60
26947;DHT22;14501;52.282;10.560;2023-04-24T11:52:46;16.20;99.80
26947;DHT22;14501;52.282;10.560;2023-04-24T11:57:48;16.40;98.30
26947;DHT22;14501;52.282;10.560;2023-04-24T12:00:23;16.40;98.20
26947;DHT22;14501;52.282;10.560;2023-04-24T12:02:49;16.00;98.60
26947;DHT22;14501;52.282;10.560;2023-04-24T12:05:27;16.00;98.90
26947;DHT22;14501;52.282;10.560;2023-04-24T12:07:54;16.10;98.80
26947;DHT22;14501;52.282;10.560;2023-04-24T12:10:25;15.90;99.80
26947;DHT22;14501;52.282;10.560;2023-04-24T12:12:51;16.00;99.10
26947;DHT22;14501;52.282;10.560;2023-04-24T12:15:18;16.30;99.80
26947;DHT22;14501;52.282;10.560;2023-04-24T12:17:45;16.50;99.10
26947;DHT22;14501;52.282;10.560;2023-04-24T12:20:12;16.50;98.80
26947;DHT22;14501;52.282;10.560;2023-04-24T12:22:48;16.50;99.30
26947;DHT22;14501;52.282;10.560;2023-04-24T12:25:18;16.50;99.90
26947;DHT22;14501;52.282;10.560;2023-04-24T12:27:45;16.50;99.90
26947;DHT22;14501;52.282;10.560;2023-04-24T12:30:15;16.20;99.90
26947;DHT22;14501;52.282;10.560;2023-04-24T12:32:46;16.30;99.90
26947;DHT22;14501;52.282;10.560;2023-04-24T12:35:12;16.30;99.90
26947;DHT22;14501;52.282;10.560;2023-04-24T12:37:38;16.10;99.90
26947;DHT22;14501;52.282;10.560;2023-04-24T12:40:12;15.90;99.80
26947;DHT22;14501;52.282;10.560;2023-04-24T12:42:45;15.80;99.90
26947;DHT22;14501;52.282;10.560;2023-04-24T12:45:12;15.50;99.90
26947;DHT22;14501;52.282;10.560;2023-04-24T12:47:38;15.30;99.90
26947;DHT22;14501;52.282;10.560;2023-04-24T12:50:05;15.00;99.90
26947;DHT22;14501;52.282;10.560;2023-04-24T12:52:31;14.80;99.90
26947;DHT22;14501;52.282;10.560;2023-04-24T12:54:59;14.50;99.90
26947;DHT22;14501;52.282;10.560;2023-04-24T12:57:28;14.50;99.90
26947;DHT22;14501;52.282;10.560;2023-04-24T12:59:58;14.90;99.90
26947;DHT22;14501;52.282;10.560;2023-04-24T13:02:25;15.00;99.90
26947;DHT22;14501;52.282;10.560;2023-04-24T13:04:53;15.00;99.90
26947;DHT22;14501;52.282;10.560;2023-04-24T13:07:19;14.80;99.90
26947;DHT22;14501;52.282;10.560;2023-04-24T13:09:45;14.30;99.90
26947;DHT22;14501;52.282;10.560;2023-04-24T13:12:12;14.20;99.90
26947;DHT22;14501;52.282;10.560;2023-04-24T13:14:38;13.80;99.90
26947;DHT22;14501;52.282;10.560;2023-04-24T13:17:04;13.30;99.90
26947;DHT22;14501;52.282;10.560;2023-04-24T13:19:36;13.30;99.90
26947;DHT22;14501;52.282;10.560;2023-04-24T13:22:01;13.20;99.90
26947;DHT22;14501;52.282;10.560;2023-04-24T13:24:27;13.40;99.90
26947;DHT22;14501;52.282;10.560;2023-04-24T13:26:53;13.70;99.90
26947;DHT22;14501;52.282;10.560;2023-04-24T13:29:19;14.20;99.90
26947;DHT22;14501;52.282;10.560;2023-04-24T13:31:46;14.20;99.90
26947;DHT22;14501;52.282;10.560;2023-04-24T13:34:13;14.30;99.90
26947;DHT22;14501;52.282;10.560;2023-04-24T13:36:38;13.80;99.90
26947;DHT22;14501;52.282;10.560;2023-04-24T13:39:05;13.60;99.90
26947;DHT22;14501;52.282;10.560;2023-04-24T13:41:32;13.60;99.90
26947;DHT22;14501;52.282;10.560;2023-04-24T13:43:58;13.40;99.90
26947;DHT22;14501;52.282;10.560;2023-04-24T13:46:23;13.10;99.90
26947;DHT22;14501;52.282;10.560;2023-04-24T13:48:49;12.90;99.90
26947;DHT22;14501;52.282;10.560;2023-04-24T13:51:15;12.90;99.90
26947;DHT22;14501;52.282;10.560;2023-04-24T13:56:07;12.70;99.90
26947;DHT22;14501;52.282;10.560;2023-04-24T13:58:33;12.80;99.90
26947;DHT22;14501;52.282;10.560;2023-04-24T14:00:59;12.70;99.90
26947;DHT22;14501;52.282;10.560;2023-04-24T14:03:24;12.80;99.90
26947;DHT22;14501;52.282;10.560;2023-04-24T14:05:50;12.90;99.90
26947;DHT22;14501;52.282;10.560;2023-04-24T14:08:16;12.80;99.90
26947;DHT22;14501;52.282;10.560;2023-04-24T14:10:42;12.70;99.90
26947;DHT22;14501;52.282;10.560;2023-04-24T14:13:08;12.90;99.90
26947;DHT22;14501;52.282;10.560;2023-04-24T14:15:35;12.90;99.90
26947;DHT22;14501;52.282;10.560;2023-04-24T14:18:01;13.00;99.90
26947;DHT22;14501;52.282;10.560;2023-04-24T14:20:26;12.80;99.90
26947;DHT22;14501;52.282;10.560;2023-04-24T14:25:18;12.40;99.90
26947;DHT22;14501;52.282;10.560;2023-04-24T14:27:44;12.20;99.90
26947;DHT22;14501;52.282;10.560;2023-04-24T14:30:12;12.10;99.90
26947;DHT22;14501;52.282;10.560;2023-04-24T14:32:38;11.90;99.90
26947;DHT22;14501;52.282;10.560;2023-04-24T14:35:05;11.80;99.90
26947;DHT22;14501;52.282;10.560;2023-04-24T14:37:31;11.80;99.90
26947;DHT22;14501;52.282;10.560;2023-04-24T14:39:57;11.70;99.90
26947;DHT22;14501;52.282;10.560;2023-04-24T14:42:22;11.70;99.90
26947;DHT22;14501;52.282;10.560;2023-04-24T14:44:48;11.60;99.90
26947;DHT22;14501;52.282;10.560;2023-04-24T14:47:14;11.40;99.90
26947;DHT22;14501;52.282;10.560;2023-04-24T14:49:39;11.10;99.90
26947;DHT22;14501;52.282;10.560;2023-04-24T14:52:05;10.90;99.90
26947;DHT22;14501;52.282;10.560;2023-04-24T14:54:30;10.80;99.90
26947;DHT22;14501;52.282;10.560;2023-04-24T14:56:56;10.60;99.90
26947;DHT22;14501;52.282;10.560;2023-04-24T14:59:27;10.30;99.90
26947;DHT22;14501;52.282;10.560;2023-04-24T15:01:52;10.00;99.90
26947;DHT22;14501;52.282;10.560;2023-04-24T15:04:25;10.80;99.90
26947;DHT22;14501;52.282;10.560;2023-04-24T15:06:52;10.10;99.90
26947;DHT22;14501;52.282;10.560;2023-04-24T15:09:19;10.10;99.90
26947;DHT22;14501;52.282;10.560;2023-04-24T15:11:46;10.10;99.90
26947;DHT22;14501;52.282;10.560;2023-04-24T15:14:11;10.10;99.90
26947;DHT22;14501;52.282;10.560;2023-04-24T15:16:37;11.20;99.90
26947;DHT22;14501;52.282;10.560;2023-04-24T15:19:03;10.50;99.90
26947;DHT22;14501;52.282;10.560;2023-04-24T15:21:28;10.50;99.90
26947;DHT22;14501;52.282;10.560;2023-04-24T15:23:54;10.70;99.90
26947;DHT22;14501;52.282;10.560;2023-04-24T15:26:19;10.70;99.90
26947;DHT22;14501;52.282;10.560;2023-04-24T15:31:12;10.60;99.90
26947;DHT22;14501;52.282;10.560;2023-04-24T15:33:38;11.10;99.90
26947;DHT22;14501;52.282;10.560;2023-04-24T15:36:04;10.60;99.90
26947;DHT22;14501;52.282;10.560;2023-04-24T15:38:30;10.30;99.90
26947;DHT22;14501;52.282;10.560;2023-04-24T15:40:56;10.20;99.90
26947;DHT22;14501;52.282;10.560;2023-04-24T15:43:21;10.30;99.90
26947;DHT22;14501;52.282;10.560;2023-04-24T15:45:49;10.70;99.90
26947;DHT22;14501;52.282;10.560;2023-04-24T15:48:15;9.90;99.90
26947;DHT22;14501;52.282;10.560;2023-04-24T15:50:42;10.20;99.90
26947;DHT22;14501;52.282;10.560;2023-04-24T15:53:07;10.30;99.90
26947;DHT22;14501;52.282;10.560;2023-04-24T15:55:33;10.40;99.90
26947;DHT22;14501;52.282;10.560;2023-04-24T15:57:59;10.40;99.90
26947;DHT22;14501;52.282;10.560;2023-04-24T16:00:25;10.40;99.90
26947;DHT22;14501;52.282;10.560;2023-04-24T16:02:53;10.50;99.90
26947;DHT22;14501;52.282;10.560;2023-04-24T16:05:18;10.40;99.90
26947;DHT22;14501;52.282;10.560;2023-04-24T16:07:44;10.30;99.90
26947;DHT22;14501;52.282;10.560;2023-04-24T16:10:10;10.30;99.90
26947;DHT22;14501;52.282;10.560;2023-04-24T16:15:02;10.40;99.90
26947;DHT22;14501;52.282;10.560;2023-04-24T16:17:28;10.40;99.90
26947;DHT22;14501;52.282;10.560;2023-04-24T16:19:54;10.50;99.90
26947;DHT22;14501;52.282;10.560;2023-04-24T16:22:19;10.70;99.90
26947;DHT22;14501;52.282;10.560;2023-04-24T16:24:45;10.60;99.90
26947;DHT22;14501;52.282;10.560;2023-04-24T16:27:13;10.60;99.90
26947;DHT22;14501;52.282;10.560;2023-04-24T16:29:39;10.50;99.90
26947;DHT22;14501;52.282;10.560;2023-04-24T16:34:30;10.50;99.90
26947;DHT22;14501;52.282;10.560;2023-04-24T16:36:56;10.50;99.90